Time;durP1;ratioP1;P1;durP2;ratioP2;P2;SDS_P1;SDS_P2;PMS_P1;PMS_P2;Temp;Humidity;BMP_temperature;BMP_pressure;BME280_temperature;BME280_humidity;BME280_pressure;Samples;Min_cycle;Max_cycle;Signal;HPM_P1;HPM_P2
2022/03/07 00:01:26;;;;;;;13.02;9.25;;;;;;;5.27;43.51;102659.66;5094117;28;20028;-64
2022/03/07 00:04:02;;;;;;;13.30;10.38;;;;;;;5.26;43.63;102652.59;5093775;28;20497;-64
2022/03/07 00:06:28;;;;;;;13.95;9.52;;;;;;;5.26;43.49;102655.25;5093697;28;20076;-64
2022/03/07 00:08:58;;;;;;;13.27;9.98;;;;;;;5.24;43.55;102647.28;5093334;28;20032;-64
2022/03/07 00:11:25;;;;;;;14.02;9.45;;;;;;;5.23;43.45;102645.53;5094061;28;20083;-64
2022/03/07 00:13:54;;;;;;;12.82;9.05;;;;;;;5.22;43.65;102650.88;5093515;28;20519;-64
2022/03/07 00:16:21;;;;;;;11.55;9.02;;;;;;;5.21;43.52;102650.00;5092115;28;20490;-63
2022/03/07 00:18:47;;;;;;;13.50;9.70;;;;;;;5.19;43.63;102651.78;5093035;28;20059;-64
2022/03/07 00:21:14;;;;;;;11.23;8.60;;;;;;;5.17;43.51;102642.97;5093162;28;20040;-63
2022/03/07 00:23:41;;;;;;;11.02;8.80;;;;;;;5.15;43.64;102644.78;5083811;28;20051;-64
2022/03/07 00:26:08;;;;;;;9.90;8.07;;;;;;;5.13;43.55;102645.72;5085277;28;20036;-64
2022/03/07 00:28:35;;;;;;;11.50;8.38;;;;;;;5.06;43.45;102648.50;5092845;28;20543;-64
2022/03/07 00:31:04;;;;;;;12.85;9.90;;;;;;;5.00;43.80;102656.59;5093229;28;20097;-64
2022/03/07 00:36:06;;;;;;;12.85;9.13;;;;;;;4.89;43.90;102655.06;5071188;28;20049;-64
2022/03/07 00:38:33;;;;;;;13.32;9.25;;;;;;;4.83;43.70;102656.03;5088499;28;20461;-64
2022/03/07 00:41:00;;;;;;;11.85;9.32;;;;;;;4.78;44.03;102660.56;5092688;28;20043;-64
2022/03/07 00:43:27;;;;;;;11.63;9.20;;;;;;;4.73;43.93;102667.75;5092807;28;20122;-64
2022/03/07 00:45:54;;;;;;;13.38;9.32;;;;;;;4.68;44.04;102670.50;5091035;28;20072;-64
2022/03/07 00:48:21;;;;;;;11.90;8.75;;;;;;;4.63;44.00;102666.16;5092397;28;20402;-64
2022/03/07 00:50:50;;;;;;;13.82;8.68;;;;;;;4.57;44.22;102666.28;5092146;28;20071;-64
2022/03/07 00:53:20;;;;;;;10.93;7.97;;;;;;;4.53;44.24;102662.78;5092754;28;20040;-64
2022/03/07 00:55:55;;;;;;;12.18;8.35;;;;;;;4.48;44.19;102662.00;5091510;28;20043;-64
2022/03/07 00:58:26;;;;;;;13.32;8.25;;;;;;;4.46;44.33;102666.47;5072355;28;20048;-64
2022/03/07 01:00:52;;;;;;;12.75;8.88;;;;;;;4.44;44.23;102657.59;5091333;28;20040;-64
2022/03/07 01:03:20;;;;;;;13.02;9.27;;;;;;;4.43;44.42;102664.69;5090284;28;20039;-64
2022/03/07 01:05:50;;;;;;;13.35;8.50;;;;;;;4.40;44.44;102662.09;5091154;28;20045;-64
2022/03/07 01:08:17;;;;;;;12.88;8.30;;;;;;;4.36;44.33;102663.03;5091772;28;20458;-64
2022/03/07 01:10:45;;;;;;;12.57;8.55;;;;;;;4.32;44.51;102663.13;5091809;28;20471;-64
2022/03/07 01:13:13;;;;;;;10.18;8.05;;;;;;;4.26;44.56;102657.91;5092142;28;20048;-64
2022/03/07 01:15:40;;;;;;;13.60;8.80;;;;;;;4.22;44.60;102653.53;5091772;28;20097;-64
2022/03/07 01:18:08;;;;;;;13.40;8.20;;;;;;;4.18;44.56;102658.00;5090460;28;20132;-64
2022/03/07 01:20:35;;;;;;;10.32;7.45;;;;;;;4.15;44.56;102658.06;5090486;28;20040;-64
2022/03/07 01:23:02;;;;;;;10.68;8.15;;;;;;;4.11;44.50;102664.34;5091390;28;20040;-64
2022/03/07 01:25:31;;;;;;;10.57;8.30;;;;;;;4.07;44.52;102657.31;5086953;28;20370;-64
2022/03/07 01:27:58;;;;;;;11.50;7.95;;;;;;;4.02;44.60;102649.41;5085412;28;20036;-63
2022/03/07 01:30:25;;;;;;;11.15;8.23;;;;;;;4.00;44.78;102659.19;5092952;28;20067;-64
2022/03/07 01:32:52;;;;;;;11.13;7.88;;;;;;;3.98;44.72;102654.78;5092502;28;20119;-64
2022/03/07 01:35:25;;;;;;;10.23;7.38;;;;;;;3.96;44.77;102656.59;5092120;28;20054;-64
2022/03/07 01:37:52;;;;;;;10.68;7.90;;;;;;;3.92;44.92;102660.19;5092055;28;20095;-64
2022/03/07 01:40:23;;;;;;;10.93;8.63;;;;;;;3.88;44.67;102662.00;5073765;28;20401;-64
2022/03/07 01:42:50;;;;;;;12.30;8.80;;;;;;;3.87;44.89;102662.03;5085702;28;20040;-63
2022/03/07 01:45:19;;;;;;;14.20;9.70;;;;;;;3.86;45.09;102661.16;5088132;28;20127;-63
2022/03/07 01:47:47;;;;;;;11.70;8.25;;;;;;;3.85;45.09;102659.41;5073816;28;20082;-63
2022/03/07 01:50:17;;;;;;;15.25;9.60;;;;;;;3.84;45.14;102652.34;5091289;28;20048;-63
2022/03/07 01:52:47;;;;;;;14.98;9.15;;;;;;;3.82;45.11;102652.34;5095959;28;20529;-63
2022/03/07 01:55:17;;;;;;;14.32;8.77;;;;;;;3.79;45.32;102647.09;5094684;28;20054;-63
2022/03/07 01:57:49;;;;;;;13.75;8.75;;;;;;;3.78;45.22;102647.09;5094541;28;20044;-64
2022/03/07 02:00:18;;;;;;;12.00;9.77;;;;;;;3.76;45.32;102652.44;5092291;28;20044;-63
2022/03/07 02:02:46;;;;;;;12.05;8.73;;;;;;;3.75;45.23;102650.69;5094394;28;20040;-64
2022/03/07 02:05:18;;;;;;;13.23;9.30;;;;;;;3.74;45.22;102661.34;5094387;28;20040;-63
2022/03/07 02:07:54;;;;;;;15.77;9.15;;;;;;;3.73;45.27;102657.78;5094212;28;20413;-64
2022/03/07 02:10:25;;;;;;;12.25;8.80;;;;;;;3.73;45.29;102652.47;5094049;28;20039;-64
2022/03/07 02:12:53;;;;;;;14.05;8.63;;;;;;;3.72;45.34;102645.41;5094268;28;20071;-63
2022/03/07 02:15:21;;;;;;;10.98;8.73;;;;;;;3.69;45.37;102641.88;5093693;28;20048;-64
2022/03/07 02:17:50;;;;;;;13.43;8.30;;;;;;;3.68;45.47;102641.00;5083624;28;20072;-64
2022/03/07 02:20:17;;;;;;;11.43;8.27;;;;;;;3.68;45.46;102642.78;5087275;28;20040;-63
2022/03/07 02:22:44;;;;;;;14.00;8.85;;;;;;;3.68;45.58;102640.13;5094765;28;20036;-64
2022/03/07 02:25:11;;;;;;;12.52;8.95;;;;;;;3.68;45.70;102641.00;5090117;28;20502;-64
2022/03/07 02:27:38;;;;;;;12.05;8.48;;;;;;;3.68;45.62;102638.34;5074709;28;20085;-63
2022/03/07 02:30:07;;;;;;;9.20;8.15;;;;;;;3.69;45.61;102644.53;5103686;28;20040;-63
2022/03/07 02:32:37;;;;;;;12.80;8.98;;;;;;;3.69;45.63;102640.09;5093113;28;20040;-64
2022/03/07 02:35:06;;;;;;;11.73;8.73;;;;;;;3.69;45.68;102639.22;5093537;28;20131;-63
2022/03/07 02:37:33;;;;;;;11.93;8.27;;;;;;;3.70;45.64;102646.31;5093496;28;20078;-63
2022/03/07 02:40:02;;;;;;;11.38;8.85;;;;;;;3.70;45.77;102643.63;5094739;28;20085;-63
2022/03/07 02:42:44;;;;;;;13.30;9.05;;;;;;;3.70;45.92;102649.84;5093132;28;20047;-63
2022/03/07 02:45:12;;;;;;;12.85;8.88;;;;;;;3.69;45.79;102648.06;5094509;28;20085;-63
2022/03/07 02:47:39;;;;;;;11.02;8.60;;;;;;;3.69;45.92;102645.41;5092490;28;20556;-63
2022/03/07 02:50:06;;;;;;;11.75;8.55;;;;;;;3.69;45.86;102644.53;5093406;28;20122;-63
2022/03/07 02:52:33;;;;;;;12.95;9.52;;;;;;;3.67;46.06;102641.91;5092893;28;20123;-64
2022/03/07 02:55:01;;;;;;;12.15;9.45;;;;;;;3.70;46.00;102646.31;5089492;28;20532;-64
2022/03/07 02:57:28;;;;;;;12.77;9.23;;;;;;;3.69;46.01;102637.44;5085951;28;20086;-63
2022/03/07 02:59:54;;;;;;;10.50;8.23;;;;;;;3.70;45.97;102639.19;5093897;28;20416;-64
2022/03/07 03:02:21;;;;;;;10.93;9.20;;;;;;;3.71;46.23;102642.75;5093168;28;20127;-64
2022/03/07 03:04:48;;;;;;;12.95;9.40;;;;;;;3.71;46.19;102638.31;5092630;28;20096;-63
2022/03/07 03:07:14;;;;;;;11.52;8.50;;;;;;;3.71;46.23;102645.41;5094280;28;20079;-64
2022/03/07 03:09:41;;;;;;;14.55;9.82;;;;;;;3.72;45.77;102639.22;5094212;28;20054;-63
2022/03/07 03:12:10;;;;;;;11.85;8.57;;;;;;;3.70;46.13;102644.53;5093601;28;20036;-64
2022/03/07 03:14:39;;;;;;;13.15;8.70;;;;;;;3.71;46.10;102637.44;5094080;28;20489;-64
2022/03/07 03:17:06;;;;;;;10.07;8.73;;;;;;;3.70;46.29;102647.19;5093661;28;20075;-64
2022/03/07 03:19:33;;;;;;;10.52;8.82;;;;;;;3.70;46.01;102651.63;5093726;28;20048;-63
2022/03/07 03:22:00;;;;;;;13.05;8.65;;;;;;;3.69;46.04;102649.84;5093835;28;20054;-63
2022/03/07 03:24:30;;;;;;;11.63;8.63;;;;;;;3.66;46.13;102647.25;5093589;28;20051;-63
2022/03/07 03:26:57;;;;;;;12.13;8.25;;;;;;;3.63;46.26;102650.81;5093808;28;20456;-64
2022/03/07 03:29:24;;;;;;;14.05;9.23;;;;;;;3.61;46.09;102646.44;5093161;28;20039;-63
2022/03/07 03:31:50;;;;;;;11.98;8.77;;;;;;;3.59;46.10;102646.44;5092427;28;20040;-63
2022/03/07 03:34:20;;;;;;;19.50;10.00;;;;;;;3.59;46.18;102648.22;5093419;28;20049;-64
2022/03/07 03:36:47;;;;;;;11.73;9.45;;;;;;;3.57;46.16;102642.06;5093697;28;20123;-63
2022/03/07 03:39:13;;;;;;;13.00;10.45;;;;;;;3.55;46.33;102641.19;5093486;28;20032;-63
2022/03/07 03:41:40;;;;;;;17.25;10.18;;;;;;;3.53;46.37;102645.66;5093352;28;20138;-63
2022/03/07 03:44:08;;;;;;;11.27;9.15;;;;;;;3.52;46.46;102652.75;5093762;28;20394;-64
2022/03/07 03:46:37;;;;;;;14.15;9.20;;;;;;;3.52;46.40;102652.75;5093486;28;20040;-63
2022/03/07 03:49:04;;;;;;;12.50;9.48;;;;;;;3.51;46.58;102649.19;5093549;28;20050;-63
2022/03/07 03:51:31;;;;;;;13.15;9.27;;;;;;;3.51;46.53;102653.63;5093619;28;20048;-64
2022/03/07 03:54:04;;;;;;;13.70;9.50;;;;;;;3.50;46.46;102652.75;5093459;28;20551;-64
2022/03/07 03:56:31;;;;;;;11.82;9.38;;;;;;;3.50;46.53;102652.75;5093758;28;20489;-63
2022/03/07 03:58:57;;;;;;;12.77;9.80;;;;;;;3.49;46.74;102658.97;5093904;28;20040;-64
2022/03/07 04:01:24;;;;;;;13.35;9.65;;;;;;;3.48;46.63;102651.91;5093783;28;20040;-63
2022/03/07 04:03:55;;;;;;;15.75;10.50;;;;;;;3.49;46.82;102650.13;5093676;28;20114;-63
2022/03/07 04:06:22;;;;;;;14.02;10.05;;;;;;;3.47;46.59;102650.13;5093571;28;20048;-64
2022/03/07 04:08:55;;;;;;;13.07;9.88;;;;;;;3.47;46.59;102652.78;5092833;28;20032;-64
2022/03/07 04:11:22;;;;;;;10.77;9.00;;;;;;;3.46;46.79;102647.50;5093350;28;20067;-63
2022/03/07 04:13:49;;;;;;;12.52;9.75;;;;;;;3.44;46.80;102644.88;5093227;28;20142;-64
2022/03/07 04:16:16;;;;;;;11.68;9.70;;;;;;;3.43;46.66;102647.53;5093391;28;20127;-64
2022/03/07 04:18:42;;;;;;;14.43;10.27;;;;;;;3.42;46.84;102643.13;5093042;28;20036;-63
2022/03/07 04:21:09;;;;;;;12.77;9.88;;;;;;;3.41;46.84;102649.34;5093158;28;20044;-63
2022/03/07 04:23:40;;;;;;;12.52;9.82;;;;;;;3.39;46.84;102645.81;5093190;28;20048;-64
2022/03/07 04:26:09;;;;;;;12.30;9.88;;;;;;;3.38;46.84;102646.72;5092714;28;20621;-63
2022/03/07 04:28:36;;;;;;;14.95;10.07;;;;;;;3.38;46.82;102652.03;5092530;28;20412;-63
2022/03/07 04:31:02;;;;;;;13.73;10.30;;;;;;;3.37;47.10;102655.59;5093005;28;20055;-64
2022/03/07 04:33:29;;;;;;;14.23;9.40;;;;;;;3.36;46.85;102648.53;5093185;28;20405;-63
2022/03/07 04:36:03;;;;;;;16.23;11.30;;;;;;;3.35;47.11;102654.72;5093002;28;20048;-64
2022/03/07 04:38:30;;;;;;;12.90;10.10;;;;;;;3.34;47.05;102655.63;5092493;28;20040;-63
2022/03/07 04:40:57;;;;;;;15.90;10.50;;;;;;;3.31;47.06;102653.88;5093140;28;20123;-63
2022/03/07 04:43:28;;;;;;;16.85;10.68;;;;;;;3.29;47.14;102649.50;5092359;28;20044;-64
2022/03/07 04:45:55;;;;;;;13.25;10.65;;;;;;;3.27;47.07;102652.16;5093123;28;20071;-64
2022/03/07 04:48:22;;;;;;;14.18;10.93;;;;;;;3.25;47.11;102647.78;5092396;28;20051;-63
2022/03/07 04:50:48;;;;;;;16.40;11.13;;;;;;;3.24;47.42;102656.63;5092351;28;20493;-63
2022/03/07 04:53:15;;;;;;;15.40;10.20;;;;;;;3.22;47.32;102661.09;5092200;28;20043;-64
2022/03/07 04:55:42;;;;;;;16.15;11.15;;;;;;;3.17;47.24;102656.72;5091660;28;20126;-64
2022/03/07 04:58:08;;;;;;;12.65;10.70;;;;;;;3.15;47.52;102660.28;5091610;28;20068;-63
2022/03/07 05:00:35;;;;;;;16.02;10.85;;;;;;;3.11;47.38;102654.13;5091486;28;20042;-64
2022/03/07 05:03:01;;;;;;;16.58;11.02;;;;;;;3.10;47.45;102657.69;5091326;28;20537;-63
2022/03/07 05:05:28;;;;;;;14.27;10.60;;;;;;;3.10;47.62;102648.84;5091043;28;20048;-64
2022/03/07 05:07:55;;;;;;;14.85;10.98;;;;;;;3.08;47.57;102651.50;5091285;28;20513;-63
2022/03/07 05:10:22;;;;;;;14.32;10.55;;;;;;;3.07;47.59;102652.41;5091326;28;20478;-63
2022/03/07 05:12:54;;;;;;;15.07;11.30;;;;;;;3.06;47.81;102653.28;5091269;28;20066;-64
2022/03/07 05:15:24;;;;;;;16.92;11.70;;;;;;;3.06;47.65;102652.41;5091237;28;20054;-63
2022/03/07 05:17:53;;;;;;;14.90;11.55;;;;;;;3.06;47.78;102652.41;5074291;28;20135;-64
2022/03/07 05:20:21;;;;;;;13.38;10.90;;;;;;;3.05;47.85;102655.97;5091846;28;20385;-64
2022/03/07 05:23:08;;;;;;;15.75;11.20;;;;;;;3.04;47.85;102648.91;5091311;28;20155;-63
2022/03/07 05:25:35;;;;;;;16.27;12.05;;;;;;;3.01;47.94;102655.13;5092030;28;20052;-63
2022/03/07 05:28:02;;;;;;;14.95;11.13;;;;;;;2.99;48.02;102656.03;5094855;28;20690;-62
2022/03/07 05:30:28;;;;;;;16.52;11.85;;;;;;;2.98;48.05;102656.94;5095542;28;20040;-63
2022/03/07 05:32:55;;;;;;;13.55;11.07;;;;;;;2.97;48.08;102653.38;5095324;28;20040;-63
2022/03/07 05:35:23;;;;;;;16.45;11.63;;;;;;;2.95;48.06;102641.88;5095159;28;20096;-64
2022/03/07 05:37:50;;;;;;;15.20;11.35;;;;;;;2.95;48.06;102636.56;5095199;28;20048;-63
2022/03/07 05:40:18;;;;;;;16.85;11.75;;;;;;;2.96;48.02;102646.31;5094931;28;20052;-63
2022/03/07 05:42:45;;;;;;;16.00;11.20;;;;;;;2.98;48.24;102641.00;5095014;28;20464;-63
2022/03/07 05:45:13;;;;;;;16.67;12.20;;;;;;;2.99;47.86;102641.00;5094813;28;20110;-63
2022/03/07 05:47:41;;;;;;;20.80;12.05;;;;;;;3.00;48.32;102644.53;5095175;28;20040;-63
2022/03/07 05:50:09;;;;;;;14.52;11.30;;;;;;;3.01;48.23;102648.94;5095597;28;20043;-63
2022/03/07 05:52:36;;;;;;;17.13;12.07;;;;;;;2.99;48.13;102651.59;5094500;28;20064;-63
2022/03/07 05:55:04;;;;;;;14.23;11.50;;;;;;;3.00;48.12;102656.03;5093649;28;20115;-63
2022/03/07 05:57:32;;;;;;;18.42;11.57;;;;;;;3.00;48.15;102655.13;5094470;28;20062;-63
2022/03/07 05:59:58;;;;;;;16.85;12.10;;;;;;;2.98;48.22;102655.16;5094738;28;20113;-64
2022/03/07 06:02:25;;;;;;;17.98;12.48;;;;;;;2.97;48.08;102663.09;5094788;28;20593;-63
2022/03/07 06:04:57;;;;;;;18.10;12.68;;;;;;;2.94;48.34;102661.34;5094905;28;20040;-64
2022/03/07 06:07:23;;;;;;;15.07;11.80;;;;;;;2.93;48.29;102679.94;5094121;28;20060;-63
2022/03/07 06:09:50;;;;;;;17.40;11.95;;;;;;;2.90;48.31;102677.34;5093485;28;20482;-63
2022/03/07 06:12:16;;;;;;;17.25;11.35;;;;;;;2.90;48.36;102691.47;5095234;28;20078;-63
2022/03/07 06:14:43;;;;;;;15.13;11.75;;;;;;;2.90;48.23;102694.13;5094689;28;20052;-63
2022/03/07 06:17:10;;;;;;;16.55;12.32;;;;;;;2.89;48.48;102689.72;5094928;28;20044;-63
2022/03/07 06:19:36;;;;;;;16.38;11.88;;;;;;;2.90;48.37;102698.56;5094202;28;20032;-64
2022/03/07 06:22:03;;;;;;;16.45;12.38;;;;;;;2.91;48.46;102697.66;5094390;28;20488;-64
2022/03/07 06:24:30;;;;;;;15.95;12.57;;;;;;;2.93;48.58;102699.41;5094636;28;20483;-64
2022/03/07 06:26:57;;;;;;;17.75;12.40;;;;;;;2.95;48.36;102702.94;5094455;28;20543;-63
2022/03/07 06:29:23;;;;;;;17.42;12.65;;;;;;;2.95;48.36;102692.31;5094329;28;20553;-63
2022/03/07 06:31:50;;;;;;;20.05;12.75;;;;;;;2.95;48.35;102692.31;5074191;28;20115;-64
2022/03/07 06:34:20;;;;;;;17.90;12.07;;;;;;;2.95;48.31;102692.31;5074580;28;20037;-63
2022/03/07 06:36:47;;;;;;;17.17;12.43;;;;;;;2.95;48.49;102689.66;5085165;28;20054;-64
2022/03/07 06:39:13;;;;;;;18.85;13.43;;;;;;;2.97;48.54;102694.94;5094231;28;20136;-63
2022/03/07 06:41:40;;;;;;;17.27;12.63;;;;;;;2.97;48.63;102697.59;5094231;28;20067;-63
2022/03/07 06:44:11;;;;;;;19.75;13.25;;;;;;;2.98;48.65;102696.75;5094252;28;20044;-63
2022/03/07 06:46:37;;;;;;;18.50;12.63;;;;;;;2.99;48.60;102703.81;5093809;28;20105;-63
2022/03/07 06:49:04;;;;;;;16.75;13.10;;;;;;;2.99;48.46;102706.47;5090537;28;20040;-63
2022/03/07 06:51:31;;;;;;;17.38;13.32;;;;;;;3.00;48.52;102700.25;5094196;28;20101;-64
2022/03/07 06:53:58;;;;;;;17.80;12.77;;;;;;;3.02;48.55;102704.66;5094172;28;20044;-64
2022/03/07 06:56:24;;;;;;;20.67;13.90;;;;;;;3.04;48.84;102702.88;5087956;28;20055;-64
2022/03/07 06:58:51;;;;;;;22.17;13.07;;;;;;;3.07;48.78;102705.50;5092825;28;20040;-63
2022/03/07 07:01:18;;;;;;;18.15;13.05;;;;;;;3.10;48.87;102702.81;5092573;28;20050;-63
2022/03/07 07:03:45;;;;;;;17.40;13.13;;;;;;;3.13;48.81;102693.94;5087206;28;20294;-64
2022/03/07 07:06:12;;;;;;;23.50;14.32;;;;;;;3.15;48.62;102706.28;5091073;28;20044;-63
2022/03/07 07:08:39;;;;;;;20.63;13.93;;;;;;;3.15;48.72;102697.44;5090949;28;20047;-63
2022/03/07 07:11:06;;;;;;;24.35;14.57;;;;;;;3.14;48.75;102693.03;5088334;28;20044;-64
2022/03/07 07:13:44;;;;;;;21.63;14.48;;;;;;;3.17;48.81;102699.19;5089274;28;20040;-65
2022/03/07 07:16:23;;;;;;;21.95;15.02;;;;;;;3.20;48.79;102698.28;5092810;28;20091;-64
2022/03/07 07:19:07;;;;;;;;;;;;;;;3.22;48.62;102695.59;5076250;28;20040;-63
2022/03/07 07:21:34;;;;;;;20.48;13.77;;;;;;;3.27;48.67;102701.75;5073154;28;19920;-64
2022/03/07 07:24:03;;;;;;;18.00;13.43;;;;;;;3.26;48.92;102697.31;5092066;28;20044;-62
2022/03/07 07:26:30;;;;;;;20.70;13.75;;;;;;;3.30;48.81;102699.06;5091660;28;20040;-64
2022/03/07 07:29:02;;;;;;;20.48;13.70;;;;;;;3.37;49.13;102700.72;5093111;28;20258;-63
2022/03/07 07:31:29;;;;;;;19.60;13.68;;;;;;;3.50;49.29;102702.34;5075048;28;20036;-64
2022/03/07 07:34:05;;;;;;;21.90;12.98;;;;;;;3.67;49.60;102691.50;5092297;28;20040;-64
2022/03/07 07:36:32;;;;;;;17.58;12.18;;;;;;;3.88;49.76;102695.69;5092855;28;20155;-65
2022/03/07 07:38:58;;;;;;;19.63;14.27;;;;;;;4.08;49.64;102702.47;5093115;28;20043;-64
2022/03/07 07:41:28;;;;;;;21.42;12.63;;;;;;;4.30;49.85;102694.19;5075830;28;20444;-65
2022/03/07 07:44:20;;;;;;;20.08;12.50;;;;;;;4.56;49.79;102699.09;5081131;28;20123;-65
2022/03/07 07:46:47;;;;;;;16.17;12.30;;;;;;;4.78;49.76;102703.16;5072862;28;20050;-64
2022/03/07 07:49:14;;;;;;;16.33;13.05;;;;;;;5.02;49.59;102699.19;5086603;28;20040;-65
2022/03/07 07:51:41;;;;;;;17.58;13.30;;;;;;;5.22;49.63;102707.69;5073604;28;20113;-64
2022/03/07 07:54:08;;;;;;;15.60;13.70;;;;;;;5.40;49.44;102703.81;5080255;28;20122;-67
2022/03/07 07:56:34;;;;;;;18.83;13.27;;;;;;;5.57;49.50;102701.66;5088001;28;20055;-69
2022/03/07 07:59:01;;;;;;;19.00;12.20;;;;;;;5.78;49.43;102702.13;5087661;28;20547;-70
2022/03/07 08:01:29;;;;;;;16.25;12.43;;;;;;;5.97;49.19;102700.88;5072633;28;20036;-71
2022/03/07 08:04:00;;;;;;;17.92;12.57;;;;;;;6.15;49.02;102707.59;5071172;28;20049;-70
2022/03/07 08:06:27;;;;;;;14.80;11.27;;;;;;;6.33;49.09;102708.03;5071965;28;20073;-69
2022/03/07 08:08:54;;;;;;;16.20;11.30;;;;;;;6.52;48.96;102707.59;5072138;28;20119;-69
2022/03/07 08:11:21;;;;;;;16.50;11.68;;;;;;;6.69;48.63;102710.75;5054389;28;20094;-70
2022/03/07 08:13:51;;;;;;;13.93;10.82;;;;;;;6.88;48.54;102716.50;5072298;28;20090;-70
2022/03/07 08:16:18;;;;;;;15.13;10.88;;;;;;;7.03;48.56;102712.53;5072360;28;20051;-70
2022/03/07 08:18:45;;;;;;;14.32;10.68;;;;;;;7.14;48.22;102718.47;5071745;28;20044;-69
2022/03/07 08:21:11;;;;;;;19.30;12.23;;;;;;;7.22;48.38;102712.00;5071828;28;20068;-69
2022/03/07 08:23:42;;;;;;;19.65;13.30;;;;;;;7.34;48.14;102708.97;5071693;28;20546;-69
2022/03/07 08:26:09;;;;;;;16.50;11.27;;;;;;;7.45;48.06;102719.41;5070391;28;20128;-68
2022/03/07 08:28:36;;;;;;;14.73;10.60;;;;;;;7.58;47.97;102720.81;5071481;28;20048;-67
2022/03/07 08:31:03;;;;;;;15.15;11.63;;;;;;;7.64;47.74;102715.28;5071687;28;20052;-68
2022/03/07 08:33:31;;;;;;;15.20;10.98;;;;;;;7.78;47.70;102714.00;5070484;28;20127;-68
2022/03/07 08:36:13;;;;;;;15.10;10.70;;;;;;;7.98;47.63;102714.28;5071814;28;20131;-67
2022/03/07 08:38:39;;;;;;;13.88;10.80;;;;;;;8.16;47.52;102705.69;5071250;28;20542;-67
2022/03/07 08:41:06;;;;;;;14.18;10.98;;;;;;;8.31;47.41;102716.84;5071619;28;20050;-67
2022/03/07 08:43:37;;;;;;;14.10;10.70;;;;;;;8.47;47.26;102710.13;5081714;28;20075;-68
2022/03/07 08:46:06;;;;;;;15.05;10.07;;;;;;;8.65;47.10;102714.00;5091669;28;20044;-68
2022/03/07 08:48:33;;;;;;;13.10;9.60;;;;;;;8.81;46.88;102712.53;5091289;28;20090;-67
2022/03/07 08:50:59;;;;;;;12.75;9.55;;;;;;;8.98;46.52;102712.00;5092000;28;20032;-67
2022/03/07 08:53:26;;;;;;;14.15;10.30;;;;;;;9.10;46.43;102709.75;5091453;28;20036;-67
2022/03/07 08:55:52;;;;;;;12.10;9.95;;;;;;;9.23;46.15;102716.44;5091695;28;20193;-67
2022/03/07 08:58:39;;;;;;;10.73;7.97;;;;;;;9.36;45.85;102706.16;5090929;28;20481;-67
2022/03/07 09:01:06;;;;;;;9.75;7.85;;;;;;;9.44;45.53;102712.09;5091500;28;20050;-68
2022/03/07 09:03:35;;;;;;;11.45;7.78;;;;;;;9.57;45.31;102704.47;5091599;28;20559;-68
2022/03/07 09:06:02;;;;;;;10.25;7.70;;;;;;;9.69;45.15;102706.72;5091503;28;20039;-68
2022/03/07 09:08:29;;;;;;;9.45;6.82;;;;;;;9.78;45.00;102701.00;5091447;28;20169;-68
2022/03/07 09:10:55;;;;;;;8.07;6.70;;;;;;;9.87;44.70;102699.78;5091270;28;20046;-68
2022/03/07 09:13:22;;;;;;;8.50;7.03;;;;;;;9.95;44.55;102692.31;5091316;28;20050;-68
2022/03/07 09:15:49;;;;;;;7.25;6.18;;;;;;;10.05;44.23;102700.88;5091352;28;20063;-68
2022/03/07 09:18:15;;;;;;;8.82;6.45;;;;;;;10.06;43.62;102698.13;5091229;28;20036;-68
2022/03/07 09:20:42;;;;;;;8.88;7.10;;;;;;;10.09;43.67;102698.00;5091337;28;20128;-67
2022/03/07 09:23:09;;;;;;;7.55;6.57;;;;;;;10.13;43.45;102694.28;5091413;28;20468;-68
2022/03/07 09:25:37;;;;;;;8.52;6.78;;;;;;;10.22;43.23;102692.19;5091531;28;20123;-68
2022/03/07 09:28:05;;;;;;;7.40;6.65;;;;;;;10.28;43.20;102690.13;5090798;28;20410;-68
2022/03/07 09:30:32;;;;;;;8.45;7.10;;;;;;;10.35;42.93;102693.44;5091373;28;20036;-68
2022/03/07 09:33:03;;;;;;;7.70;6.45;;;;;;;10.44;42.92;102688.59;5091172;28;20040;-68
2022/03/07 09:35:34;;;;;;;9.48;6.78;;;;;;;10.57;42.81;102688.97;5091346;28;20040;-68
2022/03/07 09:38:00;;;;;;;7.65;6.55;;;;;;;10.69;42.65;102690.25;5090886;28;20042;-68
2022/03/07 09:40:27;;;;;;;8.60;6.28;;;;;;;10.74;42.33;102688.25;5091182;28;20043;-68
2022/03/07 09:42:54;;;;;;;7.28;6.05;;;;;;;10.78;41.96;102688.06;5091154;28;20123;-69
2022/03/07 09:45:22;;;;;;;6.85;6.03;;;;;;;10.79;41.62;102684.44;5091658;28;20101;-68
2022/03/07 09:47:50;;;;;;;8.00;6.40;;;;;;;10.76;41.47;102672.94;5090763;28;20135;-68
2022/03/07 09:50:18;;;;;;;7.55;5.57;;;;;;;10.75;41.24;102673.88;5090751;28;20052;-68
2022/03/07 09:52:46;;;;;;;5.65;4.78;;;;;;;10.79;41.10;102672.81;5090902;28;20040;-69
2022/03/07 09:55:16;;;;;;;8.93;5.40;;;;;;;10.84;40.92;102673.47;5090962;28;20341;-68
2022/03/07 09:57:45;;;;;;;7.72;5.00;;;;;;;10.88;40.86;102679.59;5090652;28;20087;-68
2022/03/07 10:00:13;;;;;;;5.65;4.85;;;;;;;10.93;40.73;102677.56;5090728;28;20428;-68
2022/03/07 10:02:40;;;;;;;6.75;5.03;;;;;;;10.99;40.65;102674.63;5090962;28;20044;-68
2022/03/07 10:05:07;;;;;;;6.65;4.45;;;;;;;11.05;40.51;102668.97;5090846;28;20044;-68
2022/03/07 10:07:44;;;;;;;5.55;4.47;;;;;;;11.12;40.18;102670.44;5091091;28;20032;-69
2022/03/07 10:10:12;;;;;;;5.25;4.15;;;;;;;11.22;39.96;102670.94;5091047;28;20409;-68
2022/03/07 10:12:50;;;;;;;5.68;4.10;;;;;;;11.28;39.75;102681.44;5093646;28;20470;-68
2022/03/07 10:15:21;;;;;;;5.90;4.50;;;;;;;11.37;39.75;102675.63;5094652;28;20451;-69
2022/03/07 10:17:52;;;;;;;6.75;4.90;;;;;;;11.45;39.63;102676.16;5094182;28;20059;-68
2022/03/07 10:20:20;;;;;;;5.63;4.47;;;;;;;11.54;39.51;102664.09;5094672;28;20119;-68
2022/03/07 10:22:50;;;;;;;8.10;4.63;;;;;;;11.67;39.48;102657.19;5093256;28;20040;-69
2022/03/07 10:25:25;;;;;;;6.22;4.53;;;;;;;11.75;39.03;102657.72;5094759;28;20123;-68
2022/03/07 10:27:53;;;;;;;6.45;4.35;;;;;;;11.79;38.88;102656.66;5094196;28;20132;-68
2022/03/07 10:30:23;;;;;;;5.60;4.40;;;;;;;11.83;38.78;102644.81;5094345;28;20135;-67
2022/03/07 10:33:09;;;;;;;5.93;4.53;;;;;;;11.86;38.38;102638.41;5094679;28;20114;-67
2022/03/07 10:35:41;;;;;;;5.38;4.65;;;;;;;11.90;38.42;102642.72;5094551;28;20143;-67
2022/03/07 10:38:16;;;;;;;6.40;4.90;;;;;;;11.97;38.33;102636.97;5093996;28;20039;-67
2022/03/07 10:40:53;;;;;;;5.60;4.53;;;;;;;12.05;38.30;102634.78;5093822;28;20394;-68
2022/03/07 10:43:21;;;;;;;7.55;4.88;;;;;;;12.09;37.91;102641.75;5094116;28;20091;-67
2022/03/07 10:45:53;;;;;;;6.05;4.68;;;;;;;12.15;37.78;102645.09;5093870;28;20524;-67
2022/03/07 10:48:24;;;;;;;6.63;4.55;;;;;;;12.17;37.43;102640.50;5093708;28;20109;-67
2022/03/07 10:50:54;;;;;;;7.63;5.20;;;;;;;12.14;37.34;102627.19;5093886;28;20050;-67
2022/03/07 10:53:21;;;;;;;8.43;4.95;;;;;;;12.13;37.34;102629.00;5093916;28;20482;-67
2022/03/07 10:55:57;;;;;;;6.15;5.25;;;;;;;12.19;37.42;102627.84;5093727;28;20070;-67
2022/03/07 10:58:25;;;;;;;6.25;4.53;;;;;;;12.27;37.32;102623.81;5093668;28;20044;-67
2022/03/07 11:01:00;;;;;;;7.38;5.30;;;;;;;12.33;37.12;102619.94;5093649;28;20532;-68
2022/03/07 11:03:29;;;;;;;6.32;4.88;;;;;;;12.36;37.09;102612.56;5093725;28;20093;-68
2022/03/07 11:06:01;;;;;;;5.43;4.70;;;;;;;12.38;36.74;102607.09;5093544;28;20051;-68
2022/03/07 11:08:29;;;;;;;5.10;4.35;;;;;;;12.39;36.82;102603.47;5093279;28;20074;-68
2022/03/07 11:10:58;;;;;;;7.70;4.30;;;;;;;12.41;36.66;102598.84;5093163;28;20123;-67
2022/03/07 11:13:30;;;;;;;5.70;4.30;;;;;;;12.44;36.67;102590.63;5093507;28;20131;-67
2022/03/07 11:16:02;;;;;;;4.80;4.28;;;;;;;12.50;36.49;102594.81;5093341;28;20417;-67
2022/03/07 11:18:31;;;;;;;5.38;4.25;;;;;;;12.52;36.25;102595.63;5093142;28;20514;-68
2022/03/07 11:20:59;;;;;;;5.97;4.45;;;;;;;12.58;36.14;102581.81;5093252;28;20578;-68
2022/03/07 11:23:26;;;;;;;5.80;4.45;;;;;;;12.61;36.08;102582.53;5092130;28;20111;-68
2022/03/07 11:25:57;;;;;;;4.75;4.25;;;;;;;12.69;36.10;102577.66;5092070;28;20075;-67
2022/03/07 11:28:28;;;;;;;6.22;4.35;;;;;;;12.68;35.61;102573.22;5093033;28;20044;-67
2022/03/07 11:30:55;;;;;;;5.75;4.70;;;;;;;12.64;35.75;102568.06;5093140;28;20139;-67